Weather at Wilts Airport

Public forecast

Using degrees Fahrenheit for public forecast. Weather courtesy of forecast.io.

Closest aviation weather report (METAR) to Wilts Airport

Closest report is Illinois Valley Regional Airport-Walter A Duncan Field, 15.0 nm (27.8 km) NW. Retrieved 2020/09/27 02:35 UTC (17 minutes ago):

KVYS 270235Z AUTO 19015G21KT 10SM CLR 24/15 A2970 RMK AO2 T02360152

Closest aviation forecast (TAF) to Wilts Airport

Closest forecast is Central Illinois Regional Airport at Bloomington-Normal, 41.1 nm (76.1 km) S. Retrieved 2020-09-27 00:42 UTC (2 hours ago):

TAF KBMI 262341Z 2700/2724 19015KT P6SM BKN250 FM270300 19015KT P6SM BKN250 WS020/25045KT FM271400 21012KT P6SM BKN120 FM271700 24008KT P6SM BKN060 FM272100 28006KT P6SM VCSH OVC050